createdAt,value
2023-09-17T00:01:12.391Z,101071.94
2023-09-17T00:03:36.233Z,101073.41
2023-09-17T00:05:59.981Z,101072.88
2023-09-17T00:08:23.642Z,101066.59
2023-09-17T00:10:47.389Z,101074.03
2023-09-17T00:13:11.224Z,101071.31
2023-09-17T00:15:36.555Z,101075.50
2023-09-17T00:18:00.663Z,101076.66
2023-09-17T00:20:24.303Z,101072.88
2023-09-17T00:22:48.071Z,101069.84
2023-09-17T00:25:12.208Z,101076.56
2023-09-17T00:27:35.911Z,101076.56
2023-09-17T00:29:58.578Z,101081.31
2023-09-17T00:32:23.656Z,101080.78
2023-09-17T00:34:47.614Z,101080.63
2023-09-17T00:37:12.678Z,101082.78
2023-09-17T00:39:37.759Z,101077.81
2023-09-17T00:42:01.510Z,101073.38
2023-09-17T00:44:25.119Z,101084.22
2023-09-17T00:46:50.083Z,101070.13
2023-09-17T00:49:15.532Z,101082.84
2023-09-17T00:51:39.236Z,101062.63
2023-09-17T00:54:02.916Z,101069.88
2023-09-17T00:56:28.260Z,101068.19
2023-09-17T00:58:53.322Z,101072.75
2023-09-17T01:01:17.136Z,101070.38
2023-09-17T01:03:42.239Z,101068.78
2023-09-17T01:06:09.220Z,101075.22
2023-09-17T01:08:33.742Z,101070.09
2023-09-17T01:10:57.631Z,101064.69
2023-09-17T01:13:21.501Z,101064.69
2023-09-17T01:15:45.135Z,101067.69
2023-09-17T01:18:12.049Z,101068.22
2023-09-17T01:20:46.543Z,101067.69
2023-09-17T01:23:21.392Z,101064.56
2023-09-17T01:25:57.382Z,101063.84
2023-09-17T01:28:23.550Z,101065.16
2023-09-17T01:30:48.290Z,101067.00
2023-09-17T01:33:12.149Z,101065.44
2023-09-17T01:35:36.386Z,101072.91
2023-09-17T01:38:03.376Z,101072.34
2023-09-17T01:40:28.124Z,101070.63
2023-09-17T01:42:53.271Z,101070.91
2023-09-17T01:45:19.043Z,101068.38
2023-09-17T01:47:44.975Z,101074.78
2023-09-17T01:50:10.377Z,101072.38
2023-09-17T01:52:35.497Z,101074.38
2023-09-17T01:54:59.094Z,101073.97
2023-09-17T01:57:22.734Z,101078.94
2023-09-17T01:59:46.331Z,101081.41
2023-09-17T02:02:11.485Z,101076.66
2023-09-17T02:04:35.358Z,101081.84
2023-09-17T02:06:59.061Z,101075.44
2023-09-17T02:09:23.136Z,101072.84
2023-09-17T02:11:46.970Z,101078.25
2023-09-17T02:14:10.558Z,101076.56
2023-09-17T02:16:34.330Z,101071.56
2023-09-17T02:19:01.872Z,101078.84
2023-09-17T02:21:25.569Z,101076.00
2023-09-17T02:23:49.620Z,101075.16
2023-09-17T02:26:13.607Z,101080.72
2023-09-17T02:28:37.234Z,101076.91
2023-09-17T02:31:03.592Z,101078.59
2023-09-17T02:33:27.265Z,101075.19
2023-09-17T02:35:52.380Z,101076.34
2023-09-17T02:38:16.141Z,101071.94
2023-09-17T02:40:41.174Z,101076.22
2023-09-17T02:43:04.945Z,101077.63
2023-09-17T02:45:28.751Z,101079.75
2023-09-17T02:47:52.529Z,101072.53
2023-09-17T02:50:16.347Z,101073.31
2023-09-17T02:52:41.752Z,101073.50
2023-09-17T02:55:06.218Z,101072.81
2023-09-17T02:57:30.074Z,101078.94
2023-09-17T02:59:54.666Z,101079.91
2023-09-17T03:02:19.232Z,101084.63
2023-09-17T03:04:43.055Z,101085.63
2023-09-17T03:07:07.352Z,101078.22
2023-09-17T03:09:33.069Z,101077.50
2023-09-17T03:11:56.703Z,101080.38
2023-09-17T03:14:21.438Z,101083.22
2023-09-17T03:16:45.230Z,101081.22
2023-09-17T03:19:09.053Z,101088.06
2023-09-17T03:21:32.955Z,101078.66
2023-09-17T03:23:56.891Z,101078.38
2023-09-17T03:26:23.752Z,101070.00
2023-09-17T03:28:47.510Z,101067.44
2023-09-17T03:31:11.186Z,101080.25
2023-09-17T03:33:35.279Z,101079.38
2023-09-17T03:36:00.264Z,101075.84
2023-09-17T03:38:23.963Z,101069.44
2023-09-17T03:40:47.850Z,101077.81
2023-09-17T03:43:13.658Z,101072.28
2023-09-17T03:45:37.345Z,101069.59
2023-09-17T03:48:01.026Z,101070.44
2023-09-17T03:50:26.079Z,101067.72
2023-09-17T03:52:52.960Z,101069.00
2023-09-17T03:55:17.817Z,101069.00
2023-09-17T03:57:42.073Z,101077.25
2023-09-17T04:00:11.477Z,101083.22
2023-09-17T04:02:38.351Z,101086.25
2023-09-17T04:05:02.648Z,101080.13
2023-09-17T04:07:27.277Z,101081.94
2023-09-17T04:09:50.916Z,101084.66
2023-09-17T04:12:15.839Z,101079.25
2023-09-17T04:14:39.730Z,101090.38
2023-09-17T04:17:06.698Z,101088.09
2023-09-17T04:19:31.074Z,101087.66
2023-09-17T04:21:54.777Z,101086.69
2023-09-17T04:24:18.336Z,101080.41
2023-09-17T04:26:45.461Z,101089.81
2023-09-17T04:29:10.922Z,101083.69
2023-09-17T04:31:34.665Z,101090.94
2023-09-17T04:33:59.787Z,101091.22
2023-09-17T04:36:23.739Z,101100.56
2023-09-17T04:38:48.131Z,101098.63
2023-09-17T04:41:11.758Z,101102.88
2023-09-17T04:43:35.408Z,101102.31
2023-09-17T04:46:00.550Z,101110.53
2023-09-17T04:48:28.065Z,101115.22
2023-09-17T04:50:53.137Z,101107.69
2023-09-17T04:53:17.121Z,101108.41
2023-09-17T04:55:42.963Z,101109.13
2023-09-17T04:58:06.812Z,101117.81
2023-09-17T05:00:30.791Z,101117.09
2023-09-17T05:02:54.825Z,101121.03
2023-09-17T05:05:23.983Z,101121.63
2023-09-17T05:07:51.544Z,101113.25
2023-09-17T05:10:16.609Z,101121.75
2023-09-17T05:12:40.548Z,101122.50
2023-09-17T05:15:04.562Z,101121.22
2023-09-17T05:17:28.466Z,101127.59
2023-09-17T05:19:52.637Z,101122.19
2023-09-17T05:22:16.452Z,101130.63
2023-09-17T05:24:42.090Z,101135.31
2023-09-17T05:27:06.573Z,101128.75
2023-09-17T05:29:30.454Z,101135.75
2023-09-17T05:31:54.741Z,101131.63
2023-09-17T05:34:20.857Z,101133.19
2023-09-17T05:36:44.661Z,101131.19
2023-09-17T05:39:09.695Z,101130.34
2023-09-17T05:41:34.967Z,101135.31
2023-09-17T05:43:58.706Z,101135.31
2023-09-17T05:46:22.560Z,101134.13
2023-09-17T05:48:46.212Z,101137.38
2023-09-17T05:51:09.955Z,101136.66
2023-09-17T05:53:33.596Z,101138.53
2023-09-17T05:55:57.376Z,101139.00
2023-09-17T05:58:22.692Z,101138.81
2023-09-17T06:00:46.656Z,101156.78
2023-09-17T06:03:10.422Z,101149.19
2023-09-17T06:05:34.203Z,101150.19
2023-09-17T06:07:57.814Z,101146.34
2023-09-17T06:10:22.299Z,101161.59
2023-09-17T06:12:45.947Z,101161.72
2023-09-17T06:15:11.973Z,101157.03
2023-09-17T06:17:36.593Z,101159.59
2023-09-17T06:20:00.474Z,101153.22
2023-09-17T06:22:24.927Z,101156.69
2023-09-17T06:24:48.827Z,101156.72
2023-09-17T06:27:12.436Z,101158.75
2023-09-17T06:29:36.164Z,101156.91
2023-09-17T06:32:01.434Z,101162.28
2023-09-17T06:34:26.253Z,101161.81
2023-09-17T06:36:49.937Z,101158.50
2023-09-17T06:39:14.169Z,101165.31
2023-09-17T06:41:41.059Z,101165.94
2023-09-17T06:44:07.280Z,101164.41
2023-09-17T06:46:31.146Z,101169.03
2023-09-17T06:48:56.201Z,101173.16
2023-09-17T06:51:20.127Z,101168.06
2023-09-17T06:53:43.786Z,101174.88
2023-09-17T06:56:09.859Z,101174.56
2023-09-17T06:58:33.651Z,101172.09
2023-09-17T07:00:57.321Z,101181.69
2023-09-17T07:03:21.072Z,101174.28
2023-09-17T07:05:46.169Z,101169.28
2023-09-17T07:08:09.828Z,101182.50
2023-09-17T07:10:33.574Z,101179.91
2023-09-17T07:12:57.375Z,101174.84
2023-09-17T07:15:21.573Z,101182.28
2023-09-17T07:17:45.294Z,101188.75
2023-09-17T07:20:10.423Z,101184.41
2023-09-17T07:22:36.219Z,101186.75
2023-09-17T07:25:00.764Z,101171.50
2023-09-17T07:27:24.502Z,101178.31
2023-09-17T07:29:49.290Z,101193.81
2023-09-17T07:32:13.436Z,101193.28
2023-09-17T07:34:37.224Z,101189.94
2023-09-17T07:37:01.856Z,101194.44
2023-09-17T07:39:26.843Z,101186.88
2023-09-17T07:41:50.509Z,101191.91
2023-09-17T07:44:14.095Z,101198.75
2023-09-17T07:46:37.804Z,101187.97
2023-09-17T07:49:01.692Z,101195.44
2023-09-17T07:51:25.554Z,101191.31
2023-09-17T07:53:49.391Z,101201.00
2023-09-17T07:56:16.598Z,101199.75
2023-09-17T07:58:42.366Z,101190.53
2023-09-17T08:01:08.030Z,101190.22
2023-09-17T08:03:31.749Z,101189.06
2023-09-17T08:05:55.523Z,101184.63
2023-09-17T08:08:19.387Z,101189.59
2023-09-17T08:10:43.315Z,101191.22
2023-09-17T08:13:08.466Z,101191.69
2023-09-17T08:15:32.180Z,101197.97
2023-09-17T08:17:56.017Z,101195.34
2023-09-17T08:20:21.020Z,101191.22
2023-09-17T08:22:45.216Z,101190.16
2023-09-17T08:25:10.997Z,101185.16
2023-09-17T08:27:34.583Z,101191.41
2023-09-17T08:30:04.596Z,101187.94
2023-09-17T08:32:28.592Z,101184.59
2023-09-17T08:34:52.274Z,101181.88
2023-09-17T08:37:15.906Z,101188.53
2023-09-17T08:39:39.584Z,101185.22
2023-09-17T08:42:04.750Z,101190.44
2023-09-17T08:44:30.118Z,101187.75
2023-09-17T08:46:57.728Z,101185.22
2023-09-17T08:49:21.445Z,101178.81
2023-09-17T08:51:47.627Z,101182.22
2023-09-17T08:54:16.176Z,101175.38
2023-09-17T08:56:45.703Z,101183.78
2023-09-17T08:59:13.334Z,101176.94
2023-09-17T09:01:39.873Z,101177.06
2023-09-17T09:04:07.584Z,101181.34
2023-09-17T09:06:32.548Z,101174.84
2023-09-17T09:08:57.356Z,101181.63
2023-09-17T09:11:21.490Z,101182.13
2023-09-17T09:13:45.563Z,101180.06
2023-09-17T09:16:09.881Z,101173.34
2023-09-17T09:18:33.573Z,101171.44
2023-09-17T09:20:58.610Z,101171.91
2023-09-17T09:23:22.259Z,101171.47
2023-09-17T09:25:47.059Z,101171.25
2023-09-17T09:28:10.750Z,101183.75
2023-09-17T09:30:34.674Z,101174.25
2023-09-17T09:32:59.441Z,101171.31
2023-09-17T09:35:24.441Z,101171.31
2023-09-17T09:37:51.257Z,101176.81
2023-09-17T09:40:16.789Z,101175.50
2023-09-17T09:42:40.451Z,101172.09
2023-09-17T09:45:05.861Z,101164.91
2023-09-17T09:47:29.545Z,101170.56
2023-09-17T09:49:53.179Z,101166.19
2023-09-17T09:52:17.992Z,101167.50
2023-09-17T09:54:45.019Z,101162.38
2023-09-17T09:57:09.547Z,101158.16
2023-09-17T09:59:33.496Z,101166.00
2023-09-17T10:01:57.356Z,101158.72
2023-09-17T10:04:21.105Z,101159.34
2023-09-17T10:06:44.784Z,101161.47
2023-09-17T10:09:10.718Z,101161.03
2023-09-17T10:11:36.946Z,101158.19
2023-09-17T10:14:05.242Z,101161.38
2023-09-17T10:16:30.761Z,101160.28
2023-09-17T10:18:55.358Z,101159.34
2023-09-17T10:21:19.354Z,101157.03
2023-09-17T10:23:44.046Z,101159.44
2023-09-17T10:26:11.412Z,101159.06
2023-09-17T10:28:38.195Z,101155.91
2023-09-17T10:31:03.083Z,101155.69
2023-09-17T10:33:29.645Z,101155.34
2023-09-17T10:35:54.411Z,101150.31
2023-09-17T10:38:20.886Z,101156.53
2023-09-17T10:40:45.433Z,101156.88
2023-09-17T10:43:10.362Z,101150.94
2023-09-17T10:45:38.834Z,101152.19
2023-09-17T10:48:04.908Z,101154.88
2023-09-17T10:50:29.794Z,101153.91
2023-09-17T10:52:53.521Z,101160.72
2023-09-17T10:55:17.686Z,101159.00
2023-09-17T10:57:44.012Z,101162.09
2023-09-17T11:00:12.727Z,101161.13
2023-09-17T11:02:39.422Z,101161.84
2023-09-17T11:05:05.994Z,101162.22
2023-09-17T11:07:32.131Z,101166.28
2023-09-17T11:09:57.092Z,101169.44
2023-09-17T11:12:24.175Z,101155.81
2023-09-17T11:14:48.316Z,101161.03
2023-09-17T11:17:11.947Z,101165.69
2023-09-17T11:19:37.041Z,101156.34
2023-09-17T11:22:14.898Z,101153.84
2023-09-17T11:24:39.284Z,101160.06
2023-09-17T11:27:05.644Z,101152.22
2023-09-17T11:29:40.987Z,101158.53
2023-09-17T11:32:06.298Z,101147.44
2023-09-17T11:34:30.075Z,101151.41
2023-09-17T11:36:55.328Z,101150.56
2023-09-17T11:39:21.791Z,101155.53
2023-09-17T11:41:47.683Z,101145.09
2023-09-17T11:44:11.379Z,101148.56
2023-09-17T11:46:35.678Z,101147.66
2023-09-17T11:48:59.339Z,101155.59
2023-09-17T11:51:26.937Z,101143.03
2023-09-17T11:53:59.581Z,101150.78
2023-09-17T11:56:23.406Z,101151.22
2023-09-17T11:58:47.041Z,101152.97
2023-09-17T12:01:10.868Z,101154.16
2023-09-17T12:03:34.525Z,101148.94
2023-09-17T12:05:59.277Z,101152.50
2023-09-17T12:08:23.437Z,101157.75
2023-09-17T12:10:53.605Z,101152.81
2023-09-17T12:13:18.078Z,101155.66
2023-09-17T12:15:43.081Z,101139.94
2023-09-17T12:18:07.801Z,101149.75
2023-09-17T12:20:42.453Z,101154.63
2023-09-17T12:23:14.274Z,101148.66
2023-09-17T12:25:45.261Z,101153.00
2023-09-17T12:28:10.336Z,101145.94
2023-09-17T12:30:34.012Z,101144.91
2023-09-17T12:32:57.723Z,101145.00
2023-09-17T12:35:21.591Z,101140.81
2023-09-17T12:37:45.289Z,101144.69
2023-09-17T12:40:10.139Z,101146.03
2023-09-17T12:42:35.943Z,101139.91
2023-09-17T12:45:00.979Z,101139.28
2023-09-17T12:47:26.311Z,101132.28
2023-09-17T12:49:50.485Z,101142.31
2023-09-17T12:52:15.172Z,101135.34
2023-09-17T12:54:38.872Z,101130.03
2023-09-17T12:57:03.711Z,101134.28
2023-09-17T12:59:30.803Z,101125.13
2023-09-17T13:01:57.146Z,101131.81
2023-09-17T13:04:20.989Z,101121.41
2023-09-17T13:06:44.840Z,101120.75
2023-09-17T13:09:08.952Z,101124.00
2023-09-17T13:11:32.886Z,101122.88
2023-09-17T13:13:58.297Z,101127.63
2023-09-17T13:16:23.202Z,101117.94
2023-09-17T13:18:51.539Z,101125.91
2023-09-17T13:21:16.055Z,101124.31
2023-09-17T13:23:40.547Z,101113.59
2023-09-17T13:26:04.317Z,101118.31
2023-09-17T13:28:27.983Z,101120.56
2023-09-17T13:30:53.419Z,101112.44
2023-09-17T13:33:17.550Z,101104.28
2023-09-17T13:35:45.218Z,101107.31
2023-09-17T13:38:14.110Z,101108.59
2023-09-17T13:40:45.098Z,101107.16
2023-09-17T13:43:08.791Z,101106.47
2023-09-17T13:45:32.462Z,101097.16
2023-09-17T13:47:56.169Z,101095.13
2023-09-17T13:50:19.827Z,101096.72
2023-09-17T13:52:45.881Z,101089.94
2023-09-17T13:55:10.743Z,101098.34
2023-09-17T13:57:34.429Z,101099.25
2023-09-17T13:59:58.012Z,101102.56
2023-09-17T14:02:21.674Z,101096.59
2023-09-17T14:04:45.544Z,101099.69
2023-09-17T14:07:09.513Z,101082.84
2023-09-17T14:09:34.500Z,101085.41
2023-09-17T14:11:58.187Z,101084.00
2023-09-17T14:14:21.878Z,101086.84
2023-09-17T14:16:47.439Z,101083.50
2023-09-17T14:19:18.083Z,101079.72
2023-09-17T14:21:42.057Z,101079.94
2023-09-17T14:24:06.174Z,101077.38
2023-09-17T14:26:31.294Z,101075.84
2023-09-17T14:28:55.055Z,101082.94
2023-09-17T14:31:18.923Z,101077.53
2023-09-17T14:33:43.044Z,101089.66
2023-09-17T14:36:07.078Z,101080.84
2023-09-17T14:38:30.794Z,101078.19
2023-09-17T14:40:54.452Z,101070.41
2023-09-17T14:43:19.469Z,101077.06
2023-09-17T14:45:43.136Z,101081.00
2023-09-17T14:48:07.410Z,101077.31
2023-09-17T14:50:31.184Z,101073.34
2023-09-17T14:52:54.788Z,101068.91
2023-09-17T14:55:18.473Z,101079.75
2023-09-17T14:57:42.857Z,101074.03
2023-09-17T15:00:15.226Z,101072.34
2023-09-17T15:02:39.142Z,101067.75
2023-09-17T15:05:03.614Z,101064.78
2023-09-17T15:07:28.085Z,101071.78
2023-09-17T15:09:52.600Z,101065.66
2023-09-17T15:12:16.328Z,101066.72
2023-09-17T15:14:39.984Z,101069.13
2023-09-17T15:17:05.243Z,101063.69
2023-09-17T15:19:28.939Z,101069.34
2023-09-17T15:21:52.732Z,101062.47
2023-09-17T15:24:16.306Z,101065.97
2023-09-17T15:26:40.027Z,101070.31
2023-09-17T15:29:05.036Z,101072.13
2023-09-17T15:31:28.837Z,101070.72
2023-09-17T15:33:54.308Z,101061.88
2023-09-17T15:36:18.680Z,101075.81
2023-09-17T15:38:42.280Z,101071.16
2023-09-17T15:41:06.616Z,101070.72
2023-09-17T15:43:30.394Z,101069.66
2023-09-17T15:45:54.098Z,101069.38
2023-09-17T15:48:17.741Z,101065.47
2023-09-17T15:50:43.241Z,101052.22
2023-09-17T15:53:07.047Z,101062.97
2023-09-17T15:55:30.781Z,101072.28
2023-09-17T15:57:54.569Z,101066.88
2023-09-17T16:00:18.539Z,101064.00
2023-09-17T16:02:42.500Z,101077.44
2023-09-17T16:05:06.962Z,101072.22
2023-09-17T16:07:34.085Z,101064.41
2023-09-17T16:09:57.885Z,101071.78
2023-09-17T16:12:22.646Z,101067.38
2023-09-17T16:14:46.307Z,101070.00
2023-09-17T16:17:09.999Z,101068.63
2023-09-17T16:19:37.230Z,101066.72
2023-09-17T16:22:03.681Z,101070.94
2023-09-17T16:24:28.669Z,101071.22
2023-09-17T16:26:52.285Z,101075.59
2023-09-17T16:29:16.045Z,101074.25
2023-09-17T16:31:40.985Z,101075.06
2023-09-17T16:34:04.812Z,101073.25
2023-09-17T16:36:28.644Z,101068.59
2023-09-17T16:38:52.259Z,101070.78
2023-09-17T16:41:17.270Z,101073.78
2023-09-17T16:43:42.130Z,101074.28
2023-09-17T16:46:05.864Z,101066.13
2023-09-17T16:48:29.743Z,101067.69
2023-09-17T16:50:53.507Z,101072.59
2023-09-17T16:53:18.608Z,101058.91
2023-09-17T16:55:42.878Z,101057.72
2023-09-17T16:58:08.146Z,101059.03
2023-09-17T17:00:32.356Z,101051.47
2023-09-17T17:02:56.125Z,101051.28
2023-09-17T17:05:20.645Z,101049.63
2023-09-17T17:07:44.434Z,101046.50
2023-09-17T17:10:08.825Z,101050.34
2023-09-17T17:12:32.979Z,101056.47
2023-09-17T17:14:58.168Z,101058.22
2023-09-17T17:17:21.879Z,101056.69
2023-09-17T17:19:45.630Z,101064.53
2023-09-17T17:22:09.474Z,101053.31
2023-09-17T17:24:33.268Z,101060.94
2023-09-17T17:26:57.040Z,101056.94
2023-09-17T17:29:20.744Z,101064.53
2023-09-17T17:31:45.856Z,101067.69
2023-09-17T17:34:11.416Z,101073.78
2023-09-17T17:36:35.162Z,101071.84
2023-09-17T17:38:58.766Z,101074.56
2023-09-17T17:41:22.424Z,101062.91
2023-09-17T17:43:46.089Z,101074.69
2023-09-17T17:46:10.145Z,101070.88
2023-09-17T17:48:35.361Z,101069.56
2023-09-17T17:50:59.062Z,101065.09
2023-09-17T17:53:22.722Z,101070.78
2023-09-17T17:55:46.450Z,101065.88
2023-09-17T17:58:10.126Z,101059.91
2023-09-17T18:00:34.011Z,101063.44
2023-09-17T18:02:57.906Z,101060.44
2023-09-17T18:05:23.142Z,101063.31
2023-09-17T18:07:47.064Z,101051.84
2023-09-17T18:10:12.661Z,101060.88
2023-09-17T18:12:36.407Z,101058.09
2023-09-17T18:15:00.035Z,101061.16
2023-09-17T18:17:23.708Z,101066.84
2023-09-17T18:19:47.387Z,101071.81
2023-09-17T18:22:12.430Z,101062.44
2023-09-17T18:24:36.039Z,101053.53
2023-09-17T18:26:59.692Z,101056.88
2023-09-17T18:29:28.416Z,101046.91
2023-09-17T18:31:52.172Z,101055.72
2023-09-17T18:34:15.908Z,101061.09
2023-09-17T18:36:42.403Z,101054.72
2023-09-17T18:39:07.525Z,101049.81
2023-09-17T18:41:31.187Z,101048.91
2023-09-17T18:43:55.174Z,101049.31
2023-09-17T18:46:19.675Z,101054.69
2023-09-17T18:48:43.379Z,101054.59
2023-09-17T18:51:07.291Z,101053.69
2023-09-17T18:53:30.932Z,101046.22
2023-09-17T18:55:55.918Z,101044.25
2023-09-17T18:58:19.616Z,101047.56
2023-09-17T19:00:43.365Z,101049.16
2023-09-17T19:03:07.354Z,101049.69
2023-09-17T19:05:31.130Z,101054.31
2023-09-17T19:07:54.778Z,101048.75
2023-09-17T19:10:18.725Z,101045.72
2023-09-17T19:12:43.988Z,101056.19
2023-09-17T19:15:09.748Z,101058.63
2023-09-17T19:17:33.964Z,101059.19
2023-09-17T19:19:57.652Z,101054.47
2023-09-17T19:22:21.352Z,101051.66
2023-09-17T19:24:45.081Z,101051.19
2023-09-17T19:27:08.740Z,101046.09
2023-09-17T19:29:33.794Z,101037.78
2023-09-17T19:31:57.505Z,101037.72
2023-09-17T19:34:21.178Z,101034.28
2023-09-17T19:36:44.770Z,101029.16
2023-09-17T19:39:09.249Z,101027.88
2023-09-17T19:41:35.046Z,101035.22
2023-09-17T19:43:58.754Z,101029.63
2023-09-17T19:46:26.340Z,101027.25
2023-09-17T19:48:50.313Z,101023.03
2023-09-17T19:51:14.110Z,101013.69
2023-09-17T19:53:39.743Z,101017.84
2023-09-17T19:56:03.404Z,101002.69
2023-09-17T19:58:27.054Z,101012.47
2023-09-17T20:00:51.227Z,101015.19
2023-09-17T20:03:16.716Z,101009.59
2023-09-17T20:05:40.458Z,101006.03
2023-09-17T20:08:08.575Z,101002.00
2023-09-17T20:10:32.507Z,101003.91
2023-09-17T20:12:56.166Z,101006.97
2023-09-17T20:15:19.827Z,101010.25
2023-09-17T20:17:44.229Z,101002.22
2023-09-17T20:20:10.449Z,101003.63
2023-09-17T20:22:44.528Z,101003.44
2023-09-17T20:25:09.941Z,101005.19
2023-09-17T20:27:33.584Z,101001.16
2023-09-17T20:29:57.250Z,101001.50
2023-09-17T20:32:20.908Z,100999.81
2023-09-17T20:34:44.602Z,100999.31
2023-09-17T20:37:10.404Z,100998.16
2023-09-17T20:39:34.275Z,100989.66
2023-09-17T20:41:57.982Z,100987.31
2023-09-17T20:44:23.080Z,100992.28
2023-09-17T20:46:47.609Z,100991.41
2023-09-17T20:49:11.403Z,100985.97
2023-09-17T20:51:34.979Z,100986.88
2023-09-17T20:54:00.029Z,100985.72
2023-09-17T20:56:23.761Z,100991.50
2023-09-17T20:58:48.028Z,100988.97
2023-09-17T21:01:11.775Z,100987.75
2023-09-17T21:03:35.519Z,100990.88
2023-09-17T21:05:59.238Z,100991.03
2023-09-17T21:08:22.917Z,100984.94
2023-09-17T21:10:48.791Z,100979.81
2023-09-17T21:13:12.607Z,100979.63
2023-09-17T21:15:36.416Z,100978.50
2023-09-17T21:18:00.140Z,100981.56
2023-09-17T21:20:23.784Z,100989.25
2023-09-17T21:22:49.443Z,100982.09
2023-09-17T21:25:13.293Z,100982.28
2023-09-17T21:27:39.414Z,100982.63
2023-09-17T21:30:03.018Z,100979.09
2023-09-17T21:32:27.106Z,100977.06
2023-09-17T21:34:50.901Z,100970.25
2023-09-17T21:37:14.601Z,100965.19
2023-09-17T21:39:38.344Z,100966.19
2023-09-17T21:42:02.067Z,100967.56
2023-09-17T21:44:27.172Z,100965.03
2023-09-17T21:46:51.176Z,100962.50
2023-09-17T21:49:16.412Z,100959.91
2023-09-17T21:51:40.131Z,100950.25
2023-09-17T21:54:03.784Z,100948.22
2023-09-17T21:56:27.518Z,100951.13
2023-09-17T21:58:51.455Z,100954.69
2023-09-17T22:01:19.439Z,100945.84
2023-09-17T22:03:43.434Z,100951.47
2023-09-17T22:06:07.381Z,100947.91
2023-09-17T22:08:30.986Z,100946.22
2023-09-17T22:10:54.682Z,100947.06
2023-09-17T22:13:19.768Z,100939.41
2023-09-17T22:15:43.511Z,100939.59
2023-09-17T22:18:09.458Z,100940.28
2023-09-17T22:20:33.448Z,100945.72
2023-09-17T22:22:57.695Z,100946.75
2023-09-17T22:25:21.604Z,100941.78
2023-09-17T22:27:45.169Z,100937.19
2023-09-17T22:30:10.610Z,100938.91
2023-09-17T22:32:34.295Z,100934.34
2023-09-17T22:34:59.413Z,100928.38
2023-09-17T22:37:23.168Z,100928.88
2023-09-17T22:39:47.563Z,100925.00
2023-09-17T22:42:11.177Z,100918.53
2023-09-17T22:44:38.057Z,100918.03
2023-09-17T22:47:03.111Z,100919.38
2023-09-17T22:49:30.257Z,100921.09
2023-09-17T22:51:56.330Z,100909.38
2023-09-17T22:54:20.778Z,100917.38
2023-09-17T22:56:44.404Z,100909.56
2023-09-17T22:59:08.153Z,100913.63
2023-09-17T23:01:31.926Z,100910.22
2023-09-17T23:03:55.650Z,100909.56
2023-09-17T23:06:19.396Z,100908.19
2023-09-17T23:08:44.534Z,100907.19
2023-09-17T23:11:08.922Z,100904.47
2023-09-17T23:13:32.935Z,100916.56
2023-09-17T23:15:57.047Z,100913.00
2023-09-17T23:18:21.061Z,100910.44
2023-09-17T23:20:44.825Z,100912.66
2023-09-17T23:23:09.942Z,100909.25
2023-09-17T23:25:35.428Z,100911.31
2023-09-17T23:27:59.588Z,100914.38
2023-09-17T23:30:23.453Z,100911.13
2023-09-17T23:32:48.177Z,100906.38
2023-09-17T23:35:13.225Z,100908.44
2023-09-17T23:37:36.974Z,100906.22
2023-09-17T23:40:00.682Z,100895.34
2023-09-17T23:42:25.742Z,100889.59
2023-09-17T23:44:49.507Z,100885.16
2023-09-17T23:47:13.213Z,100882.78
2023-09-17T23:49:36.953Z,100879.22
2023-09-17T23:52:00.591Z,100883.97
2023-09-17T23:54:24.293Z,100880.75
2023-09-17T23:56:47.971Z,100876.69
2023-09-17T23:59:12.998Z,100871.25
